createdAt,value
2018-05-15T00:01:25.206Z,21.90
2018-05-15T00:03:53.885Z,21.13
2018-05-15T00:06:22.264Z,21.87
2018-05-15T00:08:50.709Z,20.03
2018-05-15T00:11:19.156Z,22.83
2018-05-15T00:13:47.565Z,23.40
2018-05-15T00:16:15.971Z,23.87
2018-05-15T00:18:44.779Z,31.27
2018-05-15T00:21:13.195Z,30.40
2018-05-15T00:23:41.613Z,33.93
2018-05-15T00:26:10.039Z,32.67
2018-05-15T00:28:38.447Z,31.40
2018-05-15T00:31:06.843Z,31.17
2018-05-15T00:33:35.671Z,31.60
2018-05-15T00:36:04.107Z,34.87
2018-05-15T00:38:32.516Z,35.67
2018-05-15T00:41:01.233Z,34.20
2018-05-15T00:43:29.699Z,32.83
2018-05-15T00:45:58.122Z,31.13
2018-05-15T00:48:26.980Z,30.93
2018-05-15T00:50:55.386Z,35.93
2018-05-15T00:53:23.795Z,38.43
2018-05-15T00:55:52.236Z,37.20
2018-05-15T00:58:20.649Z,36.37
2018-05-15T01:00:49.072Z,37.40
2018-05-15T01:03:17.864Z,34.23
2018-05-15T01:05:46.269Z,29.37
2018-05-15T01:08:14.692Z,29.40
2018-05-15T01:10:43.128Z,26.63
2018-05-15T01:13:11.517Z,27.40
2018-05-15T01:15:39.923Z,28.03
2018-05-15T01:18:08.510Z,26.70
2018-05-15T01:20:36.959Z,26.07
2018-05-15T01:23:05.358Z,23.37
2018-05-15T01:25:33.956Z,24.57
2018-05-15T01:28:02.378Z,24.87
2018-05-15T01:30:30.960Z,27.87
2018-05-15T01:32:59.752Z,30.03
2018-05-15T01:35:28.147Z,28.20
2018-05-15T01:37:56.568Z,28.10
2018-05-15T01:40:25.095Z,30.03
2018-05-15T01:42:53.539Z,30.60
2018-05-15T01:45:21.961Z,31.83
2018-05-15T01:47:50.700Z,31.77
2018-05-15T01:50:19.106Z,28.27
2018-05-15T01:52:47.563Z,28.07
2018-05-15T01:55:16.403Z,31.80
2018-05-15T01:57:44.803Z,31.93
2018-05-15T02:00:13.204Z,31.23
2018-05-15T02:02:41.714Z,31.73
2018-05-15T02:05:10.137Z,34.97
2018-05-15T02:07:38.557Z,36.40
2018-05-15T02:10:06.987Z,33.73
2018-05-15T02:12:35.397Z,36.87
2018-05-15T02:15:03.835Z,37.40
2018-05-15T02:17:32.559Z,42.00
2018-05-15T02:20:00.954Z,36.53
2018-05-15T02:22:29.364Z,36.33
2018-05-15T02:24:57.814Z,37.33
2018-05-15T02:27:26.250Z,36.40
2018-05-15T02:29:54.652Z,34.73
2018-05-15T02:32:23.319Z,37.87
2018-05-15T02:34:51.727Z,36.77
2018-05-15T02:37:20.269Z,40.13
2018-05-15T02:39:48.979Z,38.97
2018-05-15T02:42:17.432Z,37.43
2018-05-15T02:44:45.861Z,42.17
2018-05-15T02:47:14.336Z,42.03
2018-05-15T02:49:42.775Z,40.43
2018-05-15T02:52:11.188Z,39.73
2018-05-15T02:54:40.179Z,39.17
2018-05-15T02:57:08.611Z,38.80
2018-05-15T02:59:37.010Z,36.03
2018-05-15T03:02:05.779Z,37.57
2018-05-15T03:04:34.223Z,39.77
2018-05-15T03:07:02.655Z,35.90
2018-05-15T03:09:31.476Z,36.50
2018-05-15T03:11:59.922Z,41.10
2018-05-15T03:14:28.340Z,36.17
2018-05-15T03:16:57.224Z,33.87
2018-05-15T03:19:25.612Z,33.63
2018-05-15T03:21:54.033Z,33.00
2018-05-15T03:24:22.782Z,35.13
2018-05-15T03:26:51.175Z,31.80
2018-05-15T03:29:19.560Z,31.53
2018-05-15T03:31:48.297Z,30.37
2018-05-15T03:34:16.691Z,30.50
2018-05-15T03:36:45.103Z,31.53
2018-05-15T03:39:13.759Z,32.97
2018-05-15T03:41:42.169Z,32.47
2018-05-15T03:44:10.563Z,30.37
2018-05-15T03:46:38.991Z,34.10
2018-05-15T03:49:07.445Z,32.63
2018-05-15T03:51:35.897Z,31.93
2018-05-15T03:54:04.631Z,31.93
2018-05-15T03:56:33.049Z,31.97
2018-05-15T03:59:01.452Z,31.30
2018-05-15T04:01:41.564Z,31.67
2018-05-15T04:04:21.956Z,30.83
2018-05-15T04:07:02.657Z,30.37
2018-05-15T04:09:31.054Z,28.03
2018-05-15T04:11:59.474Z,28.93
2018-05-15T04:14:29.170Z,27.57
2018-05-15T04:16:57.714Z,27.80
2018-05-15T04:19:26.133Z,25.47
2018-05-15T04:21:54.725Z,26.07
2018-05-15T04:24:23.162Z,28.03
2018-05-15T04:26:51.588Z,27.10
2018-05-15T04:29:20.478Z,26.43
2018-05-15T04:31:48.946Z,27.43
2018-05-15T04:34:17.378Z,25.93
2018-05-15T04:36:46.138Z,25.90
2018-05-15T04:39:14.548Z,28.50
2018-05-15T04:41:42.960Z,27.13
2018-05-15T04:44:11.415Z,25.77
2018-05-15T04:46:39.807Z,28.40
2018-05-15T04:49:08.247Z,27.27
2018-05-15T04:51:36.927Z,30.43
2018-05-15T04:54:05.359Z,24.90
2018-05-15T04:56:33.761Z,24.60
2018-05-15T04:59:02.563Z,25.53
2018-05-15T05:01:30.964Z,21.43
2018-05-15T05:03:59.368Z,22.97
2018-05-15T05:06:28.559Z,20.27
2018-05-15T05:08:57.008Z,19.20
2018-05-15T05:11:25.419Z,17.57
2018-05-15T05:13:54.972Z,16.77
2018-05-15T05:16:23.387Z,15.27
2018-05-15T05:18:51.774Z,16.33
2018-05-15T05:21:20.214Z,17.00
2018-05-15T05:23:48.631Z,16.57
2018-05-15T05:26:17.068Z,16.70
2018-05-15T05:28:45.585Z,17.73
2018-05-15T05:31:13.984Z,18.27
2018-05-15T05:33:42.429Z,16.33
2018-05-15T05:36:11.576Z,17.57
2018-05-15T05:38:40.029Z,19.43
2018-05-15T05:41:08.417Z,18.97
2018-05-15T05:43:37.512Z,18.97
2018-05-15T05:46:05.963Z,18.03
2018-05-15T05:48:34.337Z,16.93
2018-05-15T05:51:03.168Z,17.63
2018-05-15T05:53:31.609Z,16.87
2018-05-15T05:56:00.045Z,18.77
2018-05-15T05:58:28.705Z,18.33
2018-05-15T06:00:57.128Z,17.43
2018-05-15T06:03:25.534Z,17.97
2018-05-15T06:05:53.991Z,20.60
2018-05-15T06:08:22.415Z,19.67
2018-05-15T06:10:50.831Z,20.17
2018-05-15T06:13:19.447Z,18.03
2018-05-15T06:15:47.890Z,19.00
2018-05-15T06:18:16.318Z,17.47
2018-05-15T06:20:45.235Z,17.10
2018-05-15T06:23:13.539Z,17.20
2018-05-15T06:25:41.952Z,16.50
2018-05-15T06:28:10.407Z,18.63
2018-05-15T06:30:38.802Z,15.63
2018-05-15T06:33:07.296Z,15.50
2018-05-15T06:35:35.759Z,16.13
2018-05-15T06:38:04.181Z,15.60
2018-05-15T06:40:32.573Z,16.07
2018-05-15T06:43:01.380Z,15.87
2018-05-15T06:45:29.809Z,15.87
2018-05-15T06:47:58.223Z,15.10
2018-05-15T06:50:27.216Z,14.90
2018-05-15T06:52:55.707Z,14.20
2018-05-15T06:55:24.107Z,17.10
2018-05-15T06:57:52.841Z,14.70
2018-05-15T07:00:21.265Z,14.47
2018-05-15T07:02:49.670Z,13.77
2018-05-15T07:05:18.114Z,14.67
2018-05-15T07:07:46.573Z,13.23
2018-05-15T07:10:14.942Z,12.80
2018-05-15T07:12:43.623Z,12.33
2018-05-15T07:15:11.992Z,13.20
2018-05-15T07:17:40.387Z,11.27
2018-05-15T07:20:08.850Z,10.97
2018-05-15T07:22:37.291Z,11.67
2018-05-15T07:25:05.671Z,10.87
2018-05-15T07:27:34.278Z,10.67
2018-05-15T07:30:02.696Z,11.20
2018-05-15T07:32:31.097Z,11.33
2018-05-15T07:34:59.549Z,11.57
2018-05-15T07:37:27.997Z,10.73
2018-05-15T07:39:56.450Z,11.47
2018-05-15T07:42:25.171Z,11.50
2018-05-15T07:44:53.561Z,12.33
2018-05-15T07:47:21.966Z,9.83
2018-05-15T07:49:50.804Z,11.10
2018-05-15T07:52:19.195Z,12.10
2018-05-15T07:54:47.602Z,12.20
2018-05-15T07:57:16.055Z,10.30
2018-05-15T07:59:44.448Z,11.53
2018-05-15T08:02:13.041Z,11.30
2018-05-15T08:04:41.693Z,10.43
2018-05-15T08:07:10.096Z,11.37
2018-05-15T08:09:38.526Z,12.37
2018-05-15T08:12:06.992Z,12.20
2018-05-15T08:14:35.412Z,9.93
2018-05-15T08:17:03.847Z,10.30
2018-05-15T08:19:32.643Z,9.20
2018-05-15T08:22:01.096Z,9.50
2018-05-15T08:24:29.496Z,10.43
2018-05-15T08:26:58.100Z,10.00
2018-05-15T08:29:26.485Z,9.50
2018-05-15T08:31:54.922Z,10.70
2018-05-15T08:34:23.680Z,11.23
2018-05-15T08:36:52.071Z,10.30
2018-05-15T08:39:20.515Z,11.33
2018-05-15T08:41:49.332Z,10.20
2018-05-15T08:44:17.730Z,10.50
2018-05-15T08:46:46.169Z,9.93
2018-05-15T08:49:14.779Z,10.83
2018-05-15T08:51:43.187Z,10.90
2018-05-15T08:54:11.583Z,10.20
2018-05-15T08:56:40.224Z,10.33
2018-05-15T08:59:08.637Z,10.60
2018-05-15T09:01:37.042Z,10.30
2018-05-15T09:04:05.788Z,10.67
2018-05-15T09:06:34.201Z,9.63
2018-05-15T09:09:02.693Z,9.85
2018-05-15T09:11:31.356Z,9.40
2018-05-15T09:13:59.749Z,8.80
2018-05-15T09:16:28.798Z,10.13
2018-05-15T09:18:57.531Z,10.27
2018-05-15T09:21:25.934Z,10.20
2018-05-15T09:23:54.324Z,9.43
2018-05-15T09:26:23.032Z,10.30
2018-05-15T09:28:51.418Z,9.40
2018-05-15T09:31:19.842Z,11.50
2018-05-15T09:33:48.890Z,9.37
2018-05-15T09:36:17.285Z,8.10
2018-05-15T09:38:45.695Z,15.73
2018-05-15T09:41:14.144Z,22.20
2018-05-15T09:43:57.473Z,12.98
2018-05-15T09:46:26.141Z,9.13
2018-05-15T09:48:54.618Z,8.32
2018-05-15T09:51:23.016Z,8.25
2018-05-15T09:53:51.478Z,8.35
2018-05-15T09:56:19.876Z,8.50
2018-05-15T09:58:48.281Z,8.90
2018-05-15T10:01:17.025Z,7.93
2018-05-15T10:03:45.540Z,7.37
2018-05-15T10:06:13.947Z,7.93
2018-05-15T10:08:42.419Z,7.05
2018-05-15T10:11:10.855Z,7.22
2018-05-15T10:13:39.241Z,7.47
2018-05-15T10:16:08.127Z,7.97
2018-05-15T10:18:36.527Z,8.77
2018-05-15T10:21:04.948Z,9.25
2018-05-15T10:23:33.392Z,8.23
2018-05-15T10:26:01.795Z,9.05
2018-05-15T10:28:30.203Z,9.48
2018-05-15T10:30:59.591Z,9.88
2018-05-15T10:33:27.998Z,9.82
2018-05-15T10:35:56.399Z,8.35
2018-05-15T10:38:25.180Z,9.25
2018-05-15T10:40:53.579Z,7.03
2018-05-15T10:43:22.011Z,7.43
2018-05-15T10:45:50.877Z,6.28
2018-05-15T10:48:19.265Z,5.85
2018-05-15T10:50:47.691Z,6.75
2018-05-15T10:53:16.139Z,6.65
2018-05-15T10:55:44.587Z,6.75
2018-05-15T10:58:12.982Z,6.62
2018-05-15T11:00:41.823Z,7.28
2018-05-15T11:03:10.217Z,6.07
2018-05-15T11:05:38.639Z,7.22
2018-05-15T11:08:07.478Z,5.30
2018-05-15T11:10:35.890Z,4.90
2018-05-15T11:13:04.278Z,4.53
2018-05-15T11:15:32.777Z,3.97
2018-05-15T11:18:12.879Z,3.50
2018-05-15T11:20:53.113Z,3.60
2018-05-15T11:23:33.719Z,3.62
2018-05-15T11:26:02.506Z,4.28
2018-05-15T11:28:30.936Z,3.75
2018-05-15T11:30:59.334Z,4.03
2018-05-15T11:33:27.932Z,3.97
2018-05-15T11:35:56.378Z,4.55
2018-05-15T11:38:24.828Z,4.03
2018-05-15T11:40:53.583Z,3.90
2018-05-15T11:43:21.983Z,3.53
2018-05-15T11:45:50.378Z,3.58
2018-05-15T11:48:19.532Z,3.03
2018-05-15T11:50:48.323Z,3.50
2018-05-15T11:53:16.590Z,3.60
2018-05-15T11:55:44.689Z,4.00
2018-05-15T11:58:13.089Z,3.67
2018-05-15T12:00:41.491Z,4.32
2018-05-15T12:03:10.247Z,4.40
2018-05-15T12:05:38.633Z,4.12
2018-05-15T12:08:07.110Z,4.18
2018-05-15T12:10:35.843Z,4.03
2018-05-15T12:13:04.231Z,4.12
2018-05-15T12:15:32.626Z,4.07
2018-05-15T12:18:01.427Z,5.03
2018-05-15T12:20:29.810Z,4.20
2018-05-15T12:22:58.212Z,4.50
2018-05-15T12:25:27.088Z,4.15
2018-05-15T12:27:55.560Z,4.32
2018-05-15T12:30:23.928Z,4.70
2018-05-15T12:32:52.727Z,3.97
2018-05-15T12:35:21.202Z,3.40
2018-05-15T12:37:49.612Z,4.28
2018-05-15T12:40:18.381Z,4.10
2018-05-15T12:42:46.826Z,4.00
2018-05-15T12:45:15.224Z,4.68
2018-05-15T12:47:44.063Z,4.68
2018-05-15T12:50:12.452Z,4.35
2018-05-15T12:52:41.150Z,4.78
2018-05-15T12:55:09.808Z,4.62
2018-05-15T12:57:38.425Z,4.00
2018-05-15T13:00:06.893Z,4.03
2018-05-15T13:02:35.318Z,4.03
2018-05-15T13:05:03.773Z,4.72
2018-05-15T13:07:32.251Z,4.60
2018-05-15T13:10:00.992Z,4.78
2018-05-15T13:12:29.490Z,4.62
2018-05-15T13:14:57.882Z,4.62
2018-05-15T13:17:26.488Z,4.53
2018-05-15T13:19:54.885Z,4.28
2018-05-15T13:22:23.269Z,4.57
2018-05-15T13:24:52.097Z,4.85
2018-05-15T13:27:20.501Z,4.20
2018-05-15T13:29:48.896Z,4.20
2018-05-15T13:32:17.440Z,5.28
2018-05-15T13:34:46.002Z,5.20
2018-05-15T13:37:14.405Z,4.57
2018-05-15T13:39:43.487Z,4.57
2018-05-15T13:42:11.879Z,4.62
2018-05-15T13:44:40.265Z,4.12
2018-05-15T13:47:09.036Z,4.72
2018-05-15T13:49:37.452Z,4.55
2018-05-15T13:52:05.834Z,4.62
2018-05-15T13:54:34.604Z,4.75
2018-05-15T13:57:02.995Z,4.35
2018-05-15T13:59:31.453Z,5.03
2018-05-15T14:02:00.240Z,5.00
2018-05-15T14:04:28.691Z,5.00
2018-05-15T14:06:58.184Z,5.37
2018-05-15T14:09:28.562Z,5.07
2018-05-15T14:11:59.096Z,5.53
2018-05-15T14:14:28.416Z,6.23
2018-05-15T14:16:56.945Z,6.10
2018-05-15T14:19:27.436Z,6.73
2018-05-15T14:21:56.839Z,7.10
2018-05-15T14:24:26.239Z,6.10
2018-05-15T14:26:54.622Z,6.10
2018-05-15T14:29:23.056Z,5.43
2018-05-15T14:31:51.496Z,5.07
2018-05-15T14:34:19.913Z,5.20
2018-05-15T14:36:48.476Z,4.90
2018-05-15T14:39:16.850Z,4.43
2018-05-15T14:41:57.128Z,3.40
2018-05-15T14:44:25.546Z,3.30
2018-05-15T14:46:54.010Z,2.90
2018-05-15T14:49:22.503Z,2.63
2018-05-15T14:51:50.887Z,2.53
2018-05-15T14:54:19.305Z,2.70
2018-05-15T14:56:47.699Z,3.47
2018-05-15T14:59:16.148Z,3.10
2018-05-15T15:01:44.549Z,2.60
2018-05-15T15:04:12.972Z,2.80
2018-05-15T15:06:41.496Z,2.73
2018-05-15T15:09:09.935Z,2.50
2018-05-15T15:11:38.403Z,2.73
2018-05-15T15:14:06.832Z,2.40
2018-05-15T15:16:35.330Z,2.40
2018-05-15T15:19:03.717Z,2.50
2018-05-15T15:21:32.155Z,2.80
2018-05-15T15:24:00.531Z,2.40
2018-05-15T15:26:28.963Z,2.70
2018-05-15T15:28:57.413Z,2.80
2018-05-15T15:31:25.902Z,2.10
2018-05-15T15:33:54.619Z,2.60
2018-05-15T15:36:23.087Z,2.40
2018-05-15T15:38:51.522Z,2.50
2018-05-15T15:41:20.447Z,2.70
2018-05-15T15:43:48.904Z,2.60
2018-05-15T15:46:17.357Z,2.63
2018-05-15T15:48:45.762Z,2.30
2018-05-15T15:51:14.187Z,2.20
2018-05-15T15:53:42.658Z,2.57
2018-05-15T15:56:11.063Z,2.03
2018-05-15T15:58:39.440Z,2.10
2018-05-15T16:01:07.826Z,2.50
2018-05-15T16:03:36.261Z,2.60
2018-05-15T16:06:04.691Z,2.40
2018-05-15T16:08:33.100Z,2.87
2018-05-15T16:11:01.533Z,3.60
2018-05-15T16:13:29.993Z,4.63
2018-05-15T16:15:58.381Z,3.55
2018-05-15T16:18:26.807Z,4.45
2018-05-15T16:20:55.200Z,3.65
2018-05-15T16:23:23.610Z,2.97
2018-05-15T16:25:52.042Z,3.22
2018-05-15T16:28:20.409Z,3.10
2018-05-15T16:30:48.859Z,3.43
2018-05-15T16:33:17.234Z,2.70
2018-05-15T16:35:45.642Z,2.27
2018-05-15T16:38:14.119Z,3.30
2018-05-15T16:40:42.531Z,2.77
2018-05-15T16:43:11.003Z,2.80
2018-05-15T16:45:39.413Z,2.60
2018-05-15T16:48:07.815Z,2.80
2018-05-15T16:50:36.208Z,3.03
2018-05-15T16:53:04.723Z,3.93
2018-05-15T16:55:33.160Z,3.17
2018-05-15T16:58:01.569Z,3.73
2018-05-15T17:00:30.111Z,4.30
2018-05-15T17:02:58.480Z,4.47
2018-05-15T17:05:26.976Z,4.60
2018-05-15T17:07:55.453Z,5.20
2018-05-15T17:10:23.839Z,5.53
2018-05-15T17:12:52.326Z,4.70
2018-05-15T17:15:20.722Z,6.13
2018-05-15T17:17:49.164Z,6.23
2018-05-15T17:20:17.622Z,4.93
2018-05-15T17:22:46.126Z,5.87
2018-05-15T17:25:14.547Z,5.70
2018-05-15T17:27:43.019Z,5.07
2018-05-15T17:30:11.433Z,6.97
2018-05-15T17:32:39.868Z,5.90
2018-05-15T17:35:08.243Z,5.77
2018-05-15T17:37:36.640Z,4.77
2018-05-15T17:40:05.121Z,5.33
2018-05-15T17:42:33.528Z,5.17
2018-05-15T17:45:01.979Z,6.07
2018-05-15T17:47:30.460Z,7.53
2018-05-15T17:49:58.845Z,7.53
2018-05-15T17:52:27.303Z,6.83
2018-05-15T17:54:55.683Z,4.77
2018-05-15T17:57:24.142Z,6.70
2018-05-15T17:59:52.657Z,5.67
2018-05-15T18:02:21.031Z,5.93
2018-05-15T18:04:49.439Z,6.43
2018-05-15T18:07:17.860Z,6.63
2018-05-15T18:09:46.255Z,6.20
2018-05-15T18:12:14.692Z,6.37
2018-05-15T18:14:43.131Z,6.07
2018-05-15T18:17:11.548Z,7.53
2018-05-15T18:19:40.021Z,7.23
2018-05-15T18:22:08.507Z,8.27
2018-05-15T18:24:36.908Z,7.73
2018-05-15T18:27:05.356Z,7.93
2018-05-15T18:29:33.772Z,7.57
2018-05-15T18:32:02.182Z,7.17
2018-05-15T18:34:30.645Z,7.97
2018-05-15T18:36:59.031Z,8.30
2018-05-15T18:39:27.431Z,8.30
2018-05-15T18:41:55.871Z,8.77
2018-05-15T18:44:24.485Z,9.00
2018-05-15T18:46:53.112Z,8.53
2018-05-15T18:49:21.569Z,8.53
2018-05-15T18:51:50.004Z,7.87
2018-05-15T18:54:18.430Z,8.37
2018-05-15T18:56:46.887Z,8.83
2018-05-15T18:59:15.336Z,7.60
2018-05-15T19:01:43.755Z,8.03
2018-05-15T19:04:12.199Z,8.00
2018-05-15T19:06:40.721Z,6.63
2018-05-15T19:09:09.095Z,7.60
2018-05-15T19:11:37.552Z,6.83
2018-05-15T19:14:05.949Z,8.33
2018-05-15T19:16:34.425Z,9.37
2018-05-15T19:19:02.867Z,10.07
2018-05-15T19:21:31.324Z,5.03
2018-05-15T19:23:59.769Z,6.30
2018-05-15T19:26:28.956Z,4.30
2018-05-15T19:28:57.351Z,5.07
2018-05-15T19:31:31.296Z,4.10
2018-05-15T19:33:59.741Z,4.83
2018-05-15T19:36:31.779Z,5.77
2018-05-15T19:39:06.108Z,4.53
2018-05-15T19:41:34.576Z,4.47
2018-05-15T19:44:02.982Z,4.03
2018-05-15T19:46:31.372Z,3.80
2018-05-15T19:48:59.808Z,2.97
2018-05-15T19:51:28.883Z,2.80
2018-05-15T19:53:57.293Z,2.73
2018-05-15T19:56:25.711Z,3.10
2018-05-15T19:58:54.124Z,3.53
2018-05-15T20:01:22.549Z,2.67
2018-05-15T20:03:50.995Z,2.33
2018-05-15T20:06:19.378Z,2.47
2018-05-15T20:08:47.831Z,2.90
2018-05-15T20:11:16.206Z,3.33
2018-05-15T20:13:44.591Z,2.70
2018-05-15T20:16:13.101Z,4.40
2018-05-15T20:18:41.432Z,4.17
2018-05-15T20:21:09.869Z,4.60
2018-05-15T20:23:38.268Z,4.50
2018-05-15T20:26:06.695Z,3.90
2018-05-15T20:28:35.109Z,4.73
2018-05-15T20:31:03.559Z,3.80
2018-05-15T20:33:31.997Z,3.73
2018-05-15T20:36:00.435Z,4.13
2018-05-15T20:38:28.909Z,3.30
2018-05-15T20:40:57.288Z,3.77
2018-05-15T20:43:25.742Z,3.30
2018-05-15T20:45:54.180Z,4.37
2018-05-15T20:48:22.633Z,4.97
2018-05-15T20:50:51.060Z,6.40
2018-05-15T20:53:19.448Z,5.47
2018-05-15T20:55:47.867Z,5.03
2018-05-15T20:58:16.243Z,5.67
2018-05-15T21:00:44.679Z,5.20
2018-05-15T21:03:13.060Z,5.73
2018-05-15T21:05:41.451Z,6.90
2018-05-15T21:08:09.919Z,7.80
2018-05-15T21:10:38.331Z,8.43
2018-05-15T21:13:06.778Z,8.23
2018-05-15T21:15:35.192Z,10.40
2018-05-15T21:18:03.643Z,11.30
2018-05-15T21:20:32.080Z,10.10
2018-05-15T21:23:00.536Z,12.47
2018-05-15T21:25:28.999Z,13.13
2018-05-15T21:27:57.402Z,14.93
2018-05-15T21:30:25.839Z,15.30
2018-05-15T21:32:54.279Z,16.07
2018-05-15T21:35:22.690Z,15.77
2018-05-15T21:37:51.146Z,16.70
2018-05-15T21:40:19.583Z,19.97
2018-05-15T21:42:48.030Z,14.13
2018-05-15T21:45:16.435Z,11.47
2018-05-15T21:47:44.899Z,12.27
2018-05-15T21:50:13.483Z,8.53
2018-05-15T21:52:42.023Z,9.00
2018-05-15T21:55:10.348Z,9.77
2018-05-15T21:57:38.919Z,11.50
2018-05-15T22:00:07.351Z,9.47
2018-05-15T22:02:35.785Z,10.17
2018-05-15T22:05:04.245Z,11.10
2018-05-15T22:07:32.730Z,11.67
2018-05-15T22:10:01.171Z,9.07
2018-05-15T22:12:41.307Z,10.00
2018-05-15T22:15:27.393Z,13.00
2018-05-15T22:18:13.888Z,23.47
2018-05-15T22:21:00.466Z,25.63
2018-05-15T22:23:34.181Z,35.63
2018-05-15T22:26:02.348Z,34.07
2018-05-15T22:28:30.786Z,37.40
2018-05-15T22:30:59.235Z,32.67
2018-05-15T22:33:27.708Z,26.50
2018-05-15T22:35:56.168Z,27.77
2018-05-15T22:38:24.640Z,27.20
2018-05-15T22:40:53.031Z,29.17
2018-05-15T22:43:21.456Z,29.00
2018-05-15T22:45:49.876Z,31.43
2018-05-15T22:48:18.271Z,29.43
2018-05-15T22:50:46.663Z,28.63
2018-05-15T22:53:15.135Z,29.23
2018-05-15T22:55:43.544Z,31.80
2018-05-15T22:58:11.995Z,32.67
2018-05-15T23:00:40.412Z,28.73
2018-05-15T23:03:08.851Z,33.67
2018-05-15T23:05:37.239Z,29.33
2018-05-15T23:08:05.706Z,16.87
2018-05-15T23:10:34.127Z,20.47
2018-05-15T23:13:02.600Z,23.80
2018-05-15T23:15:31.066Z,21.27
2018-05-15T23:17:59.504Z,17.53
2018-05-15T23:20:27.954Z,20.77
2018-05-15T23:22:56.367Z,21.83
2018-05-15T23:25:24.811Z,21.60
2018-05-15T23:27:53.267Z,22.33
2018-05-15T23:30:21.732Z,22.40
2018-05-15T23:32:50.146Z,22.63
2018-05-15T23:35:18.571Z,23.83
2018-05-15T23:37:46.966Z,24.37
2018-05-15T23:40:15.409Z,29.07
2018-05-15T23:42:43.864Z,28.47
2018-05-15T23:45:12.299Z,28.57
2018-05-15T23:47:40.747Z,29.23
2018-05-15T23:50:09.196Z,31.13
2018-05-15T23:52:37.624Z,30.10
2018-05-15T23:55:06.031Z,29.53
2018-05-15T23:57:34.512Z,35.40
